createdAt,value
2017-07-26T00:02:06.537Z,91.80
2017-07-26T00:04:32.513Z,91.90
2017-07-26T00:06:58.481Z,92.20
2017-07-26T00:09:24.451Z,91.90
2017-07-26T00:11:51.153Z,92.20
2017-07-26T00:14:17.148Z,92.10
2017-07-26T00:16:43.101Z,92.20
2017-07-26T00:19:09.073Z,92.40
2017-07-26T00:21:35.049Z,92.30
2017-07-26T00:24:01.021Z,92.20
2017-07-26T00:26:26.995Z,92.20
2017-07-26T00:28:52.969Z,92.40
2017-07-26T00:31:18.950Z,92.60
2017-07-26T00:33:44.917Z,92.60
2017-07-26T00:36:10.889Z,92.30
2017-07-26T00:38:36.878Z,92.30
2017-07-26T00:41:02.869Z,92.60
2017-07-26T00:43:28.842Z,92.50
2017-07-26T00:45:54.817Z,92.60
2017-07-26T00:48:20.788Z,92.50
2017-07-26T00:50:46.752Z,92.50
2017-07-26T00:53:12.720Z,92.60
2017-07-26T00:55:38.684Z,92.50
2017-07-26T00:58:04.661Z,92.70
2017-07-26T01:00:30.625Z,92.70
2017-07-26T01:02:56.605Z,92.50
2017-07-26T01:05:22.568Z,92.50
2017-07-26T01:07:48.543Z,92.60
2017-07-26T01:10:14.530Z,92.70
2017-07-26T01:12:41.253Z,93.00
2017-07-26T01:15:07.961Z,92.80
2017-07-26T01:17:33.957Z,92.80
2017-07-26T01:19:59.924Z,92.90
2017-07-26T01:22:25.881Z,93.00
2017-07-26T01:24:51.853Z,93.00
2017-07-26T01:27:17.817Z,93.10
2017-07-26T01:29:44.545Z,92.90
2017-07-26T01:32:10.514Z,92.90
2017-07-26T01:34:36.497Z,92.90
2017-07-26T01:37:02.483Z,93.00
2017-07-26T01:39:28.469Z,92.80
2017-07-26T01:41:55.261Z,92.90
2017-07-26T01:44:21.224Z,92.90
2017-07-26T01:46:47.201Z,92.90
2017-07-26T01:49:13.165Z,92.90
2017-07-26T01:51:39.153Z,92.90
2017-07-26T01:54:05.121Z,92.90
2017-07-26T01:56:31.093Z,93.10
2017-07-26T01:58:57.084Z,93.20
2017-07-26T02:01:23.102Z,93.10
2017-07-26T02:03:49.076Z,93.10
2017-07-26T02:06:15.801Z,93.10
2017-07-26T02:08:41.768Z,93.00
2017-07-26T02:11:07.734Z,93.00
2017-07-26T02:13:33.714Z,93.00
2017-07-26T02:15:59.693Z,93.00
2017-07-26T02:18:25.662Z,93.00
2017-07-26T02:20:51.630Z,92.80
2017-07-26T02:23:17.596Z,92.80
2017-07-26T02:25:43.566Z,92.80
2017-07-26T02:28:09.543Z,92.60
2017-07-26T02:30:35.500Z,92.60
2017-07-26T02:33:01.494Z,92.40
2017-07-26T02:35:27.453Z,92.60
2017-07-26T02:37:53.415Z,92.50
2017-07-26T02:40:19.416Z,92.50
2017-07-26T02:42:45.393Z,92.30
2017-07-26T02:45:12.108Z,92.30
2017-07-26T02:47:38.088Z,92.40
2017-07-26T02:50:04.078Z,92.50
2017-07-26T02:52:30.050Z,92.50
2017-07-26T02:54:56.770Z,92.30
2017-07-26T02:57:23.481Z,92.30
2017-07-26T02:59:49.455Z,92.30
2017-07-26T03:02:15.419Z,92.60
2017-07-26T03:04:41.381Z,92.50
2017-07-26T03:07:07.353Z,92.70
2017-07-26T03:09:33.345Z,92.80
2017-07-26T03:12:00.069Z,93.00
2017-07-26T03:14:26.042Z,93.00
2017-07-26T03:16:52.010Z,92.90
2017-07-26T03:19:17.973Z,93.00
2017-07-26T03:21:44.684Z,92.90
2017-07-26T03:24:10.662Z,92.90
2017-07-26T03:26:36.645Z,92.90
2017-07-26T03:29:02.610Z,93.00
2017-07-26T03:31:28.582Z,93.10
2017-07-26T03:33:54.582Z,92.90
2017-07-26T03:36:20.714Z,93.00
2017-07-26T03:38:46.694Z,93.10
2017-07-26T03:41:12.669Z,93.10
2017-07-26T03:43:38.660Z,93.10
2017-07-26T03:46:04.648Z,93.00
2017-07-26T03:48:30.646Z,93.10
2017-07-26T03:50:56.622Z,93.10
2017-07-26T03:53:22.604Z,93.20
2017-07-26T03:55:48.596Z,93.30
2017-07-26T03:58:14.621Z,93.30
2017-07-26T04:00:40.584Z,93.40
2017-07-26T04:03:06.580Z,93.40
2017-07-26T04:05:32.548Z,93.40
2017-07-26T04:07:59.264Z,93.60
2017-07-26T04:10:25.244Z,93.30
2017-07-26T04:12:51.241Z,93.30
2017-07-26T04:15:17.220Z,93.40
2017-07-26T04:17:43.459Z,93.40
2017-07-26T04:20:09.473Z,93.40
2017-07-26T04:22:35.434Z,93.40
2017-07-26T04:25:02.148Z,93.40
2017-07-26T04:27:28.862Z,93.60
2017-07-26T04:29:54.843Z,93.50
2017-07-26T04:32:20.809Z,93.30
2017-07-26T04:34:46.803Z,93.20
2017-07-26T04:37:13.514Z,93.30
2017-07-26T04:39:39.490Z,93.30
2017-07-26T04:42:05.463Z,93.20
2017-07-26T04:44:31.442Z,93.20
2017-07-26T04:46:58.162Z,93.20
2017-07-26T04:49:24.225Z,93.20
2017-07-26T04:51:50.188Z,93.30
2017-07-26T04:54:16.148Z,93.20
2017-07-26T04:56:42.120Z,93.20
2017-07-26T04:59:08.104Z,93.20
2017-07-26T05:01:34.830Z,93.20
2017-07-26T05:04:00.805Z,93.10
2017-07-26T05:06:26.792Z,93.30
2017-07-26T05:08:52.789Z,93.10
2017-07-26T05:11:18.754Z,93.10
2017-07-26T05:13:45.493Z,93.60
2017-07-26T05:16:11.481Z,93.30
2017-07-26T05:18:37.461Z,93.20
2017-07-26T05:21:03.437Z,93.00
2017-07-26T05:23:29.461Z,93.10
2017-07-26T05:25:55.429Z,93.20
2017-07-26T05:28:22.154Z,93.00
2017-07-26T05:30:48.860Z,93.20
2017-07-26T05:33:14.836Z,93.20
2017-07-26T05:35:40.793Z,93.20
2017-07-26T05:38:07.514Z,93.10
2017-07-26T05:40:34.226Z,93.20
2017-07-26T05:43:00.225Z,93.10
2017-07-26T05:45:26.185Z,93.10
2017-07-26T05:47:52.181Z,93.00
2017-07-26T05:50:18.903Z,93.00
2017-07-26T05:52:45.713Z,92.90
2017-07-26T05:55:11.684Z,92.90
2017-07-26T05:57:37.657Z,92.80
2017-07-26T06:00:03.701Z,92.80
2017-07-26T06:02:29.678Z,92.90
2017-07-26T06:04:55.670Z,92.80
2017-07-26T06:07:22.387Z,92.70
2017-07-26T06:09:49.228Z,92.70
2017-07-26T06:12:15.293Z,92.60
2017-07-26T06:14:42.285Z,92.90
2017-07-26T06:17:08.350Z,92.80
2017-07-26T06:19:34.469Z,92.80
2017-07-26T06:22:01.369Z,92.80
2017-07-26T06:24:27.408Z,92.60
2017-07-26T06:26:53.757Z,92.60
2017-07-26T06:29:19.946Z,92.40
2017-07-26T06:31:46.074Z,92.40
2017-07-26T06:34:12.344Z,92.20
2017-07-26T06:36:38.469Z,92.40
2017-07-26T06:39:04.833Z,92.60
2017-07-26T06:41:30.946Z,92.40
2017-07-26T06:43:57.713Z,92.30
2017-07-26T06:46:23.849Z,92.40
2017-07-26T06:48:49.898Z,92.10
2017-07-26T06:51:16.660Z,92.00
2017-07-26T06:53:42.695Z,92.10
2017-07-26T06:56:08.708Z,92.20
2017-07-26T06:58:34.733Z,92.10
2017-07-26T07:01:00.745Z,91.80
2017-07-26T07:03:26.781Z,92.00
2017-07-26T07:05:53.533Z,91.40
2017-07-26T07:08:19.560Z,91.60
2017-07-26T07:10:45.577Z,91.60
2017-07-26T07:13:11.595Z,91.60
2017-07-26T07:15:37.633Z,91.60
2017-07-26T07:18:03.640Z,91.60
2017-07-26T07:20:29.660Z,91.40
2017-07-26T07:22:55.673Z,91.50
2017-07-26T07:25:21.770Z,91.70
2017-07-26T07:27:48.534Z,91.30
2017-07-26T07:30:14.560Z,91.30
2017-07-26T07:32:40.569Z,91.20
2017-07-26T07:35:06.605Z,91.30
2017-07-26T07:37:32.613Z,91.40
2017-07-26T07:39:58.628Z,91.00
2017-07-26T07:42:24.651Z,90.80
2017-07-26T07:44:51.417Z,91.00
2017-07-26T07:47:17.446Z,91.00
2017-07-26T07:49:43.479Z,90.80
2017-07-26T07:52:09.505Z,91.20
2017-07-26T07:54:36.269Z,90.20
2017-07-26T07:57:02.309Z,90.10
2017-07-26T07:59:28.333Z,89.50
2017-07-26T08:01:54.366Z,89.60
2017-07-26T08:04:20.381Z,88.80
2017-07-26T08:06:46.394Z,89.40
2017-07-26T08:09:12.429Z,89.10
2017-07-26T09:25:32.460Z,86.00
2017-07-26T09:27:58.489Z,80.40
2017-07-26T09:30:24.520Z,79.80
2017-07-26T09:32:50.561Z,81.90
2017-07-26T09:35:16.580Z,79.90
2017-07-26T09:37:42.596Z,80.20
2017-07-26T09:40:08.617Z,76.80
2017-07-26T09:42:34.742Z,78.20
2017-07-26T09:45:01.518Z,74.50
2017-07-26T09:47:27.520Z,74.30
2017-07-26T09:49:53.549Z,69.50
2017-07-26T09:52:19.561Z,70.80
2017-07-26T09:54:46.333Z,70.60
2017-07-26T09:57:12.358Z,70.50
2017-07-26T09:59:38.377Z,73.90
2017-07-26T10:02:04.457Z,73.40
2017-07-26T10:04:31.222Z,70.70
2017-07-26T10:06:57.232Z,70.60
2017-07-26T10:09:23.253Z,69.00
2017-07-26T10:11:49.287Z,67.80
2017-07-26T10:14:16.061Z,65.70
2017-07-26T10:16:42.093Z,65.70
2017-07-26T10:19:08.118Z,66.40
2017-07-26T10:21:34.149Z,64.20
2017-07-26T10:24:00.919Z,63.70
2017-07-26T10:26:26.952Z,63.70
2017-07-26T10:28:52.969Z,64.50
2017-07-26T10:31:18.988Z,63.00
2017-07-26T10:33:45.014Z,65.20
2017-07-26T10:36:11.043Z,62.20
2017-07-26T10:38:37.066Z,59.10
2017-07-26T10:41:03.086Z,60.40
2017-07-26T10:43:29.109Z,57.80
2017-07-26T10:45:55.117Z,62.50
2017-07-26T10:48:21.141Z,57.50
2017-07-26T10:50:47.204Z,55.80
2017-07-26T10:53:13.232Z,51.90
2017-07-26T10:55:39.257Z,50.50
2017-07-26T10:58:05.296Z,45.10
2017-07-26T11:00:38.421Z,46.10
2017-07-26T11:03:04.466Z,43.80
2017-07-26T11:05:31.237Z,42.00
2017-07-26T11:07:57.265Z,41.20
2017-07-26T11:10:23.303Z,38.00
2017-07-26T11:12:49.326Z,36.40
2017-07-26T11:15:16.106Z,35.70
2017-07-26T11:17:42.130Z,35.70
2017-07-26T11:20:08.172Z,35.80
2017-07-26T11:22:34.185Z,32.90
2017-07-26T11:25:00.947Z,31.90
2017-07-26T11:27:26.967Z,31.80
2017-07-26T11:29:53.018Z,34.20
2017-07-26T11:32:19.779Z,34.20
2017-07-26T11:34:45.785Z,33.60
2017-07-26T11:37:11.801Z,33.10
2017-07-26T11:39:37.871Z,37.20
2017-07-26T11:42:03.893Z,33.40
2017-07-26T11:44:30.648Z,34.40
2017-07-26T11:46:56.684Z,34.40
2017-07-26T11:49:22.697Z,33.00
2017-07-26T11:51:48.712Z,30.30
2017-07-26T11:54:21.805Z,30.50
2017-07-26T11:56:47.833Z,28.50
2017-07-26T11:59:14.597Z,29.80
2017-07-26T12:01:40.633Z,29.80
2017-07-26T12:04:06.653Z,27.90
2017-07-26T12:06:32.687Z,28.20
2017-07-26T12:08:58.708Z,31.30
2017-07-26T12:11:24.737Z,29.30
2017-07-26T12:13:50.778Z,31.00
2017-07-26T12:16:16.798Z,35.10
2017-07-26T12:18:42.826Z,33.10
2017-07-26T12:21:08.860Z,34.10
2017-07-26T12:23:34.888Z,33.50
2017-07-26T12:26:00.917Z,32.00
2017-07-26T12:28:26.958Z,33.10
2017-07-26T12:30:52.991Z,34.50
2017-07-26T12:33:19.048Z,31.90
2017-07-26T12:35:45.079Z,33.90
2017-07-26T12:38:11.833Z,32.30
2017-07-26T12:40:37.870Z,32.90
2017-07-26T12:43:03.884Z,36.50
2017-07-26T12:45:29.917Z,34.90
2017-07-26T12:47:55.937Z,34.60
2017-07-26T12:50:21.960Z,31.80
2017-07-26T12:52:47.981Z,30.80
2017-07-26T12:55:14.792Z,32.60
2017-07-26T12:57:40.813Z,34.40
2017-07-26T13:00:06.837Z,35.90
2017-07-26T13:02:32.859Z,36.60
2017-07-26T13:04:58.877Z,38.40
2017-07-26T13:07:24.896Z,36.90
2017-07-26T13:09:50.904Z,39.00
2017-07-26T13:12:16.925Z,37.80
2017-07-26T13:14:42.949Z,39.50
2017-07-26T13:17:09.722Z,41.30
2017-07-26T13:19:35.741Z,41.30
2017-07-26T13:22:01.769Z,40.70
2017-07-26T13:24:27.785Z,41.40
2017-07-26T13:26:53.812Z,38.30
2017-07-26T13:29:20.581Z,40.40
2017-07-26T13:31:46.621Z,40.50
2017-07-26T13:34:12.641Z,35.50
2017-07-26T13:36:38.683Z,37.90
2017-07-26T13:39:04.730Z,37.60
2017-07-26T13:41:30.761Z,36.80
2017-07-26T13:43:56.777Z,32.60
2017-07-26T13:46:22.797Z,32.90
2017-07-26T13:48:49.548Z,30.00
2017-07-26T13:51:15.566Z,30.00
2017-07-26T13:53:41.621Z,29.10
2017-07-26T13:56:07.646Z,30.40
2017-07-26T13:58:33.693Z,28.50
2017-07-26T14:00:59.700Z,30.90
2017-07-26T14:03:25.741Z,29.50
2017-07-26T14:05:51.757Z,30.00
2017-07-26T14:08:17.770Z,29.70
2017-07-26T14:10:43.801Z,29.90
2017-07-26T14:13:10.568Z,29.70
2017-07-26T14:15:36.605Z,30.20
2017-07-26T14:18:02.634Z,29.50
2017-07-26T14:20:28.662Z,29.80
2017-07-26T14:22:54.680Z,30.90
2017-07-26T14:25:20.706Z,28.80
2017-07-26T14:27:46.756Z,27.80
2017-07-26T14:30:12.789Z,27.40
2017-07-26T14:32:38.813Z,27.20
2017-07-26T14:35:04.841Z,27.30
2017-07-26T14:37:30.872Z,28.90
2017-07-26T14:39:56.890Z,26.30
2017-07-26T14:42:22.917Z,27.80
2017-07-26T14:44:48.924Z,26.60
2017-07-26T14:47:15.733Z,30.40
2017-07-26T14:49:41.753Z,30.40
2017-07-26T14:52:07.780Z,31.30
2017-07-26T14:54:33.811Z,34.30
2017-07-26T14:56:59.820Z,38.40
2017-07-26T14:59:25.843Z,39.40
2017-07-26T15:01:51.853Z,40.60
2017-07-26T15:04:17.898Z,40.20
2017-07-26T15:06:43.940Z,40.00
2017-07-26T15:09:09.969Z,43.10
2017-07-26T15:11:35.993Z,45.20
2017-07-26T15:14:02.036Z,47.70
2017-07-26T15:16:28.074Z,46.20
2017-07-26T15:18:54.116Z,43.20
2017-07-26T15:21:20.146Z,43.00
2017-07-26T15:23:46.171Z,44.70
2017-07-26T15:26:12.209Z,48.20
2017-07-26T15:28:38.973Z,49.50
2017-07-26T15:31:05.017Z,49.40
2017-07-26T15:33:31.044Z,48.20
2017-07-26T15:35:57.080Z,43.70
2017-07-26T15:38:23.102Z,43.80
2017-07-26T15:40:49.125Z,42.90
2017-07-26T15:43:15.140Z,42.60
2017-07-26T15:45:41.176Z,44.50
2017-07-26T15:48:07.944Z,44.70
2017-07-26T15:50:33.960Z,44.70
2017-07-26T15:53:00.001Z,46.00
2017-07-26T15:55:26.013Z,45.80
2017-07-26T15:57:52.048Z,48.80
2017-07-26T16:00:18.809Z,50.80
2017-07-26T16:02:44.847Z,50.00
2017-07-26T16:05:10.871Z,51.40
2017-07-26T16:07:36.890Z,51.30
2017-07-26T16:10:02.938Z,53.30
2017-07-26T16:12:28.981Z,55.20
2017-07-26T16:14:55.017Z,55.10
2017-07-26T16:17:21.037Z,55.40
2017-07-26T16:19:47.081Z,56.40
2017-07-26T16:22:13.109Z,56.00
2017-07-26T16:24:39.221Z,56.40
2017-07-26T16:27:05.232Z,57.00
2017-07-26T16:29:31.303Z,57.40
2017-07-26T16:31:57.364Z,58.30
2017-07-26T16:34:23.389Z,57.40
2017-07-26T16:36:50.173Z,57.50
2017-07-26T16:39:16.206Z,57.50
2017-07-26T16:41:42.232Z,54.60
2017-07-26T16:44:08.270Z,51.60
2017-07-26T16:46:34.288Z,48.80
2017-07-26T16:49:00.300Z,46.00
2017-07-26T16:51:26.335Z,45.50
2017-07-26T16:53:52.353Z,44.60
2017-07-26T16:56:18.382Z,46.50
2017-07-26T16:58:45.146Z,50.00
2017-07-26T17:01:11.177Z,49.20
2017-07-26T17:03:37.217Z,50.40
2017-07-26T17:06:03.258Z,50.90
2017-07-26T17:08:29.293Z,52.60
2017-07-26T17:10:55.313Z,51.50
2017-07-26T17:13:21.359Z,52.80
2017-07-26T17:15:48.216Z,54.00
2017-07-26T17:18:14.286Z,53.90
2017-07-26T17:20:40.315Z,53.80
2017-07-26T17:23:06.349Z,55.10
2017-07-26T17:25:32.432Z,55.40
2017-07-26T17:27:58.557Z,57.00
2017-07-26T17:30:24.572Z,56.50
2017-07-26T17:32:50.629Z,57.30
2017-07-26T17:35:16.665Z,57.10
2017-07-26T17:37:43.470Z,59.40
2017-07-26T17:40:24.469Z,59.40
2017-07-26T17:42:50.505Z,58.00
2017-07-26T17:45:16.518Z,58.30
2017-07-26T17:47:42.552Z,58.70
2017-07-26T17:50:08.729Z,60.10
2017-07-26T17:52:34.760Z,59.30
2017-07-26T17:55:00.782Z,60.30
2017-07-26T17:57:26.812Z,59.80
2017-07-26T17:59:53.640Z,60.60
2017-07-26T18:02:20.410Z,61.10
2017-07-26T18:04:46.437Z,61.10
2017-07-26T18:07:12.466Z,62.30
2017-07-26T18:09:38.536Z,61.80
2017-07-26T18:12:04.549Z,63.00
2017-07-26T18:14:30.602Z,63.10
2017-07-26T18:16:56.638Z,63.00
2017-07-26T18:19:22.662Z,62.90
2017-07-26T18:21:48.677Z,64.00
2017-07-26T18:24:14.685Z,64.10
2017-07-26T18:26:41.784Z,64.50
2017-07-26T18:29:08.553Z,64.70
2017-07-26T18:31:34.572Z,64.60
2017-07-26T18:34:00.588Z,65.70
2017-07-26T18:36:26.627Z,65.80
2017-07-26T18:38:52.647Z,65.80
2017-07-26T18:41:18.766Z,65.70
2017-07-26T18:43:44.792Z,65.90
2017-07-26T18:46:10.829Z,67.40
2017-07-26T18:48:36.900Z,67.40
2017-07-26T18:51:02.977Z,67.10
2017-07-26T18:53:29.006Z,67.50
2017-07-26T18:55:55.009Z,68.10
2017-07-26T18:58:21.794Z,68.80
2017-07-26T19:00:47.838Z,68.60
2017-07-26T19:03:13.873Z,68.60
2017-07-26T19:05:39.893Z,69.50
2017-07-26T19:08:05.932Z,68.90
2017-07-26T19:10:31.957Z,69.00
2017-07-26T19:12:57.977Z,68.50
2017-07-26T19:15:24.740Z,69.90
2017-07-26T19:17:50.770Z,69.80
2017-07-26T19:20:16.797Z,69.70
2017-07-26T19:22:42.818Z,69.70
2017-07-26T19:25:08.846Z,70.50
2017-07-26T19:27:35.614Z,70.50
2017-07-26T19:30:01.650Z,70.40
2017-07-26T19:32:27.674Z,71.50
2017-07-26T19:34:54.432Z,70.40
2017-07-26T19:37:20.454Z,70.30
2017-07-26T19:39:46.494Z,70.60
2017-07-26T19:42:12.518Z,72.30
2017-07-26T19:44:38.524Z,72.50
2017-07-26T19:47:04.556Z,72.20
2017-07-26T19:49:30.576Z,72.10
2017-07-26T19:51:56.597Z,72.60
2017-07-26T19:54:22.625Z,73.70
2017-07-26T19:56:48.649Z,73.70
2017-07-26T19:59:14.684Z,73.50
2017-07-26T20:01:40.727Z,73.70
2017-07-26T20:04:06.749Z,75.30
2017-07-26T20:06:32.832Z,75.20
2017-07-26T20:08:58.857Z,74.60
2017-07-26T20:11:24.950Z,74.80
2017-07-26T20:13:51.748Z,74.60
2017-07-26T20:16:17.783Z,74.60
2017-07-26T20:18:44.537Z,75.30
2017-07-26T20:21:10.542Z,75.20
2017-07-26T20:23:36.578Z,74.70
2017-07-26T20:26:02.601Z,73.80
2017-07-26T20:28:28.673Z,74.30
2017-07-26T20:30:54.730Z,75.00
2017-07-26T20:33:20.746Z,75.20
2017-07-26T20:35:47.489Z,74.90
2017-07-26T20:38:13.586Z,74.90
2017-07-26T20:40:39.607Z,75.40
2017-07-26T20:43:05.659Z,74.70
2017-07-26T20:45:31.686Z,75.00
2017-07-26T20:47:57.714Z,75.90
2017-07-26T20:50:24.505Z,76.10
2017-07-26T20:52:51.299Z,76.50
2017-07-26T20:55:17.325Z,76.20
2017-07-26T20:57:43.346Z,76.00
2017-07-26T21:00:09.386Z,76.00
2017-07-26T21:02:42.399Z,76.10
2017-07-26T21:05:08.451Z,76.10
2017-07-26T21:07:34.666Z,76.40
2017-07-26T21:10:01.535Z,76.60
2017-07-26T21:12:27.549Z,76.50
2017-07-26T21:14:55.646Z,76.70
2017-07-26T21:17:21.733Z,77.20
2017-07-26T21:19:47.755Z,77.40
2017-07-26T21:22:13.778Z,77.70
2017-07-26T21:24:39.798Z,78.10
2017-07-26T21:27:05.834Z,78.70
2017-07-26T21:29:32.594Z,78.90
2017-07-26T21:31:58.637Z,78.80
2017-07-26T21:34:24.660Z,79.40
2017-07-26T21:36:50.691Z,79.80
2017-07-26T21:39:17.031Z,79.30
2017-07-26T21:41:43.169Z,79.60
2017-07-26T21:44:09.209Z,79.90
2017-07-26T21:46:35.230Z,79.50
2017-07-26T21:49:02.017Z,80.50
2017-07-26T21:51:28.052Z,80.60
2017-07-26T21:53:54.807Z,82.10
2017-07-26T21:56:20.900Z,81.30
2017-07-26T21:58:46.954Z,81.60
2017-07-26T22:01:13.039Z,81.80
2017-07-26T22:03:39.083Z,81.90
2017-07-26T22:06:05.155Z,82.40
2017-07-26T22:08:31.194Z,82.80
2017-07-26T22:10:57.226Z,82.80
2017-07-26T22:13:23.271Z,83.20
2017-07-26T22:15:49.348Z,83.60
2017-07-26T22:18:15.442Z,83.40
2017-07-26T22:20:41.508Z,84.10
2017-07-26T22:23:07.569Z,84.00
2017-07-26T22:25:33.617Z,84.20
2017-07-26T22:27:59.658Z,84.40
2017-07-26T22:30:25.703Z,84.70
2017-07-26T22:32:51.767Z,84.50
2017-07-26T22:35:17.825Z,84.80
2017-07-26T22:37:43.867Z,85.00
2017-07-26T22:40:09.916Z,85.30
2017-07-26T22:42:35.977Z,85.20
2017-07-26T22:45:02.030Z,85.60
2017-07-26T22:47:28.067Z,85.90
2017-07-26T22:49:54.111Z,86.10
2017-07-26T22:52:20.171Z,86.00
2017-07-26T22:54:46.241Z,85.80
2017-07-26T22:57:12.289Z,86.00
2017-07-26T22:59:38.317Z,85.90
2017-07-26T23:02:20.068Z,85.80
2017-07-26T23:04:46.106Z,85.70
2017-07-26T23:07:12.890Z,86.30
2017-07-26T23:09:38.953Z,86.30
2017-07-26T23:12:05.733Z,86.60
2017-07-26T23:14:31.782Z,86.60
2017-07-26T23:16:58.551Z,86.40
2017-07-26T23:19:24.561Z,86.40
2017-07-26T23:21:50.589Z,86.60
2017-07-26T23:24:16.599Z,87.00
2017-07-26T23:26:42.613Z,87.00
2017-07-26T23:29:08.631Z,86.80
2017-07-26T23:31:34.665Z,86.90
2017-07-26T23:34:00.665Z,87.00
2017-07-26T23:36:27.426Z,87.10
2017-07-26T23:38:53.442Z,87.10
2017-07-26T23:41:19.468Z,87.20
2017-07-26T23:43:45.513Z,87.00
2017-07-26T23:46:12.284Z,87.40
2017-07-26T23:48:38.310Z,87.40
2017-07-26T23:51:04.332Z,87.30
2017-07-26T23:53:30.363Z,87.40
2017-07-26T23:55:56.373Z,88.10
2017-07-26T23:58:23.139Z,88.10
